Aviation Digital Data Service (ADDS)

Output produced by TAFs form (1559 UTC 16 April 2014)
found at http://aviationweather.gov/adds/tafs/
 
KELP 161129Z 1612/1712 VRB03KT P6SM FEW250 
     FM161800 24013G21KT P6SM FEW250 
     FM162200 26018G29KT P6SM FEW250 
     FM170200 28014G21KT P6SM SCT250 
     FM170600 03005KT P6SM SCT250